sensor_id;sensor_type;location;lat;lon;timestamp;P1;durP1;ratioP1;P2;durP2;ratioP2
71236;SDS011;58984;51.960;5.582;2024-03-02T00:02:05;3.05;;;2.05;;
71236;SDS011;58984;51.960;5.582;2024-03-02T00:04:32;5.45;;;2.10;;
71236;SDS011;58984;51.960;5.582;2024-03-02T00:06:57;4.30;;;1.92;;
71236;SDS011;58984;51.960;5.582;2024-03-02T00:09:23;9.07;;;2.33;;
71236;SDS011;58984;51.960;5.582;2024-03-02T00:11:49;2.78;;;2.03;;
71236;SDS011;58984;51.960;5.582;2024-03-02T00:14:16;3.33;;;2.10;;
71236;SDS011;58984;51.960;5.582;2024-03-02T00:16:41;2.20;;;1.77;;
71236;SDS011;58984;51.960;5.582;2024-03-02T00:19:08;3.67;;;1.88;;
71236;SDS011;58984;51.960;5.582;2024-03-02T00:21:34;4.13;;;2.30;;
71236;SDS011;58984;51.960;5.582;2024-03-02T00:24:01;6.43;;;1.90;;
71236;SDS011;58984;51.960;5.582;2024-03-02T00:26:50;2.20;;;1.90;;
71236;SDS011;58984;51.960;5.582;2024-03-02T00:29:16;4.43;;;2.28;;
71236;SDS011;58984;51.960;5.582;2024-03-02T00:31:44;3.75;;;2.30;;
71236;SDS011;58984;51.960;5.582;2024-03-02T00:34:10;5.05;;;2.28;;
71236;SDS011;58984;51.960;5.582;2024-03-02T00:36:39;6.72;;;2.78;;
71236;SDS011;58984;51.960;5.582;2024-03-02T00:39:05;4.18;;;2.33;;
71236;SDS011;58984;51.960;5.582;2024-03-02T00:41:33;4.35;;;2.10;;
71236;SDS011;58984;51.960;5.582;2024-03-02T00:46:35;2.78;;;1.88;;
71236;SDS011;58984;51.960;5.582;2024-03-02T00:49:05;3.03;;;2.17;;
71236;SDS011;58984;51.960;5.582;2024-03-02T00:51:35;2.88;;;2.00;;
71236;SDS011;58984;51.960;5.582;2024-03-02T00:54:05;2.40;;;1.73;;
71236;SDS011;58984;51.960;5.582;2024-03-02T00:56:33;2.73;;;1.60;;
71236;SDS011;58984;51.960;5.582;2024-03-02T00:59:00;3.22;;;1.80;;
71236;SDS011;58984;51.960;5.582;2024-03-02T01:01:26;3.17;;;1.55;;
71236;SDS011;58984;51.960;5.582;2024-03-02T01:03:52;1.17;;;1.10;;
71236;SDS011;58984;51.960;5.582;2024-03-02T01:06:18;3.83;;;1.27;;
71236;SDS011;58984;51.960;5.582;2024-03-02T01:08:44;1.83;;;1.27;;
71236;SDS011;58984;51.960;5.582;2024-03-02T01:11:10;1.25;;;1.02;;
71236;SDS011;58984;51.960;5.582;2024-03-02T01:13:36;2.67;;;1.15;;
71236;SDS011;58984;51.960;5.582;2024-03-02T01:16:02;1.73;;;1.10;;
71236;SDS011;58984;51.960;5.582;2024-03-02T01:18:29;1.00;;;0.80;;
71236;SDS011;58984;51.960;5.582;2024-03-02T01:20:55;1.65;;;0.90;;
71236;SDS011;58984;51.960;5.582;2024-03-02T01:23:21;1.00;;;0.80;;
71236;SDS011;58984;51.960;5.582;2024-03-02T01:25:48;0.85;;;0.85;;
71236;SDS011;58984;51.960;5.582;2024-03-02T01:28:14;1.20;;;0.95;;
71236;SDS011;58984;51.960;5.582;2024-03-02T01:30:40;1.48;;;0.82;;
71236;SDS011;58984;51.960;5.582;2024-03-02T01:33:06;1.85;;;0.98;;
71236;SDS011;58984;51.960;5.582;2024-03-02T01:35:32;0.98;;;0.90;;
71236;SDS011;58984;51.960;5.582;2024-03-02T01:37:57;1.00;;;0.90;;
71236;SDS011;58984;51.960;5.582;2024-03-02T01:40:23;0.70;;;0.63;;
71236;SDS011;58984;51.960;5.582;2024-03-02T01:42:52;1.05;;;0.77;;
71236;SDS011;58984;51.960;5.582;2024-03-02T01:45:23;1.27;;;0.80;;
71236;SDS011;58984;51.960;5.582;2024-03-02T01:47:49;1.40;;;0.88;;
71236;SDS011;58984;51.960;5.582;2024-03-02T01:50:14;2.47;;;0.90;;
71236;SDS011;58984;51.960;5.582;2024-03-02T01:52:41;1.23;;;0.75;;
71236;SDS011;58984;51.960;5.582;2024-03-02T01:55:07;0.93;;;0.65;;
71236;SDS011;58984;51.960;5.582;2024-03-02T01:57:33;2.17;;;1.05;;
71236;SDS011;58984;51.960;5.582;2024-03-02T01:59:59;0.68;;;0.60;;
71236;SDS011;58984;51.960;5.582;2024-03-02T02:02:25;0.77;;;0.77;;
71236;SDS011;58984;51.960;5.582;2024-03-02T02:04:51;0.73;;;0.70;;
71236;SDS011;58984;51.960;5.582;2024-03-02T02:07:17;1.98;;;0.98;;
71236;SDS011;58984;51.960;5.582;2024-03-02T02:09:43;1.50;;;0.70;;
71236;SDS011;58984;51.960;5.582;2024-03-02T02:12:12;1.23;;;1.02;;
71236;SDS011;58984;51.960;5.582;2024-03-02T02:14:37;2.13;;;0.88;;
71236;SDS011;58984;51.960;5.582;2024-03-02T02:17:05;0.60;;;0.50;;
71236;SDS011;58984;51.960;5.582;2024-03-02T02:19:30;0.93;;;0.70;;
71236;SDS011;58984;51.960;5.582;2024-03-02T02:21:56;1.30;;;0.70;;
71236;SDS011;58984;51.960;5.582;2024-03-02T02:24:21;1.17;;;0.80;;
71236;SDS011;58984;51.960;5.582;2024-03-02T02:26:47;2.00;;;0.90;;
71236;SDS011;58984;51.960;5.582;2024-03-02T02:29:13;3.75;;;0.80;;
71236;SDS011;58984;51.960;5.582;2024-03-02T02:31:41;1.00;;;0.77;;
71236;SDS011;58984;51.960;5.582;2024-03-02T02:34:07;1.00;;;0.73;;
71236;SDS011;58984;51.960;5.582;2024-03-02T02:36:34;0.68;;;0.68;;
71236;SDS011;58984;51.960;5.582;2024-03-02T02:39:03;0.77;;;0.70;;
71236;SDS011;58984;51.960;5.582;2024-03-02T02:41:32;0.93;;;0.88;;
71236;SDS011;58984;51.960;5.582;2024-03-02T02:43:57;1.27;;;0.70;;
71236;SDS011;58984;51.960;5.582;2024-03-02T02:46:23;1.10;;;0.90;;
71236;SDS011;58984;51.960;5.582;2024-03-02T02:48:49;0.77;;;0.77;;
71236;SDS011;58984;51.960;5.582;2024-03-02T02:51:16;1.15;;;0.73;;
71236;SDS011;58984;51.960;5.582;2024-03-02T02:53:42;1.13;;;0.77;;
71236;SDS011;58984;51.960;5.582;2024-03-02T02:56:07;1.10;;;0.95;;
71236;SDS011;58984;51.960;5.582;2024-03-02T02:58:34;0.80;;;0.80;;
71236;SDS011;58984;51.960;5.582;2024-03-02T03:01:00;0.90;;;0.60;;
71236;SDS011;58984;51.960;5.582;2024-03-02T03:03:26;1.02;;;0.90;;
71236;SDS011;58984;51.960;5.582;2024-03-02T03:05:52;1.70;;;0.88;;
71236;SDS011;58984;51.960;5.582;2024-03-02T03:08:17;1.42;;;0.90;;
71236;SDS011;58984;51.960;5.582;2024-03-02T03:10:43;1.65;;;0.77;;
71236;SDS011;58984;51.960;5.582;2024-03-02T03:13:09;1.08;;;0.70;;
71236;SDS011;58984;51.960;5.582;2024-03-02T03:15:35;2.42;;;0.77;;
71236;SDS011;58984;51.960;5.582;2024-03-02T03:18:04;1.67;;;0.73;;
71236;SDS011;58984;51.960;5.582;2024-03-02T03:20:30;0.63;;;0.50;;
71236;SDS011;58984;51.960;5.582;2024-03-02T03:22:59;0.80;;;0.60;;
71236;SDS011;58984;51.960;5.582;2024-03-02T03:25:25;1.48;;;0.80;;
71236;SDS011;58984;51.960;5.582;2024-03-02T03:27:51;1.35;;;0.75;;
71236;SDS011;58984;51.960;5.582;2024-03-02T03:30:17;1.98;;;0.82;;
71236;SDS011;58984;51.960;5.582;2024-03-02T03:32:43;0.90;;;0.65;;
71236;SDS011;58984;51.960;5.582;2024-03-02T03:35:09;1.48;;;0.80;;
71236;SDS011;58984;51.960;5.582;2024-03-02T03:37:35;0.50;;;0.50;;
71236;SDS011;58984;51.960;5.582;2024-03-02T03:40:01;2.40;;;0.88;;
71236;SDS011;58984;51.960;5.582;2024-03-02T03:42:28;1.80;;;0.73;;
71236;SDS011;58984;51.960;5.582;2024-03-02T03:44:53;0.68;;;0.68;;
71236;SDS011;58984;51.960;5.582;2024-03-02T03:47:19;0.80;;;0.70;;
71236;SDS011;58984;51.960;5.582;2024-03-02T03:49:45;0.70;;;0.65;;
71236;SDS011;58984;51.960;5.582;2024-03-02T03:52:11;1.92;;;0.65;;
71236;SDS011;58984;51.960;5.582;2024-03-02T03:54:37;0.95;;;0.85;;
71236;SDS011;58984;51.960;5.582;2024-03-02T03:57:03;2.97;;;0.90;;
71236;SDS011;58984;51.960;5.582;2024-03-02T03:59:29;0.70;;;0.70;;
71236;SDS011;58984;51.960;5.582;2024-03-02T04:01:55;1.58;;;0.82;;
71236;SDS011;58984;51.960;5.582;2024-03-02T04:04:21;1.25;;;0.70;;
71236;SDS011;58984;51.960;5.582;2024-03-02T04:06:47;1.35;;;0.70;;
71236;SDS011;58984;51.960;5.582;2024-03-02T04:09:13;1.17;;;0.90;;
71236;SDS011;58984;51.960;5.582;2024-03-02T04:11:38;1.50;;;0.88;;
71236;SDS011;58984;51.960;5.582;2024-03-02T04:14:04;2.42;;;0.82;;
71236;SDS011;58984;51.960;5.582;2024-03-02T04:16:31;0.70;;;0.70;;
71236;SDS011;58984;51.960;5.582;2024-03-02T04:18:57;1.08;;;0.80;;
71236;SDS011;58984;51.960;5.582;2024-03-02T04:21:22;1.77;;;0.90;;
71236;SDS011;58984;51.960;5.582;2024-03-02T04:23:48;2.22;;;0.80;;
71236;SDS011;58984;51.960;5.582;2024-03-02T04:26:14;2.15;;;0.85;;
71236;SDS011;58984;51.960;5.582;2024-03-02T04:28:40;1.50;;;0.68;;
71236;SDS011;58984;51.960;5.582;2024-03-02T04:31:05;0.90;;;0.75;;
71236;SDS011;58984;51.960;5.582;2024-03-02T04:33:31;2.15;;;0.80;;
71236;SDS011;58984;51.960;5.582;2024-03-02T04:35:57;1.65;;;0.80;;
71236;SDS011;58984;51.960;5.582;2024-03-02T04:38:22;1.58;;;1.00;;
71236;SDS011;58984;51.960;5.582;2024-03-02T04:40:48;2.42;;;1.00;;
71236;SDS011;58984;51.960;5.582;2024-03-02T04:43:14;1.00;;;0.80;;
71236;SDS011;58984;51.960;5.582;2024-03-02T04:45:41;1.30;;;0.90;;
71236;SDS011;58984;51.960;5.582;2024-03-02T04:48:07;1.35;;;1.10;;
71236;SDS011;58984;51.960;5.582;2024-03-02T04:50:33;1.60;;;0.80;;
71236;SDS011;58984;51.960;5.582;2024-03-02T04:52:59;2.40;;;1.00;;
71236;SDS011;58984;51.960;5.582;2024-03-02T04:55:24;0.88;;;0.70;;
71236;SDS011;58984;51.960;5.582;2024-03-02T04:57:53;1.27;;;0.90;;
71236;SDS011;58984;51.960;5.582;2024-03-02T05:00:20;1.55;;;0.80;;
71236;SDS011;58984;51.960;5.582;2024-03-02T05:02:45;1.23;;;0.70;;
71236;SDS011;58984;51.960;5.582;2024-03-02T05:05:11;1.23;;;0.70;;
71236;SDS011;58984;51.960;5.582;2024-03-02T05:07:37;0.95;;;0.60;;
71236;SDS011;58984;51.960;5.582;2024-03-02T05:10:03;1.40;;;0.82;;
71236;SDS011;58984;51.960;5.582;2024-03-02T05:12:29;1.45;;;0.95;;
71236;SDS011;58984;51.960;5.582;2024-03-02T05:14:55;1.73;;;0.77;;
71236;SDS011;58984;51.960;5.582;2024-03-02T05:17:21;0.98;;;0.77;;
71236;SDS011;58984;51.960;5.582;2024-03-02T05:19:46;1.80;;;0.90;;
71236;SDS011;58984;51.960;5.582;2024-03-02T05:22:13;1.65;;;0.80;;
71236;SDS011;58984;51.960;5.582;2024-03-02T05:24:38;1.45;;;0.93;;
71236;SDS011;58984;51.960;5.582;2024-03-02T05:27:04;1.80;;;0.70;;
71236;SDS011;58984;51.960;5.582;2024-03-02T05:29:31;1.80;;;0.98;;
71236;SDS011;58984;51.960;5.582;2024-03-02T05:31:57;1.38;;;0.90;;
71236;SDS011;58984;51.960;5.582;2024-03-02T05:34:22;1.98;;;0.90;;
71236;SDS011;58984;51.960;5.582;2024-03-02T05:36:48;0.95;;;0.82;;
71236;SDS011;58984;51.960;5.582;2024-03-02T05:39:13;2.00;;;0.85;;
71236;SDS011;58984;51.960;5.582;2024-03-02T05:41:39;1.27;;;0.90;;
71236;SDS011;58984;51.960;5.582;2024-03-02T05:44:05;1.50;;;0.90;;
71236;SDS011;58984;51.960;5.582;2024-03-02T05:46:30;2.40;;;1.00;;
71236;SDS011;58984;51.960;5.582;2024-03-02T05:48:56;2.35;;;1.00;;
71236;SDS011;58984;51.960;5.582;2024-03-02T05:51:22;1.23;;;0.90;;
71236;SDS011;58984;51.960;5.582;2024-03-02T05:53:48;2.80;;;0.93;;
71236;SDS011;58984;51.960;5.582;2024-03-02T05:56:13;1.25;;;0.90;;
71236;SDS011;58984;51.960;5.582;2024-03-02T05:58:40;0.85;;;0.80;;
71236;SDS011;58984;51.960;5.582;2024-03-02T06:01:24;1.42;;;1.00;;
71236;SDS011;58984;51.960;5.582;2024-03-02T06:03:54;1.20;;;0.85;;
71236;SDS011;58984;51.960;5.582;2024-03-02T06:06:21;2.55;;;1.00;;
71236;SDS011;58984;51.960;5.582;2024-03-02T06:08:47;0.85;;;0.80;;
71236;SDS011;58984;51.960;5.582;2024-03-02T06:11:13;1.50;;;1.00;;
71236;SDS011;58984;51.960;5.582;2024-03-02T06:13:38;1.73;;;1.00;;
71236;SDS011;58984;51.960;5.582;2024-03-02T06:16:04;1.13;;;0.90;;
71236;SDS011;58984;51.960;5.582;2024-03-02T06:18:30;2.05;;;0.60;;
71236;SDS011;58984;51.960;5.582;2024-03-02T06:20:56;1.25;;;0.80;;
71236;SDS011;58984;51.960;5.582;2024-03-02T06:23:21;3.05;;;1.02;;
71236;SDS011;58984;51.960;5.582;2024-03-02T06:25:47;1.20;;;0.90;;
71236;SDS011;58984;51.960;5.582;2024-03-02T06:28:13;2.58;;;0.98;;
71236;SDS011;58984;51.960;5.582;2024-03-02T06:30:40;0.98;;;0.80;;
71236;SDS011;58984;51.960;5.582;2024-03-02T06:33:07;4.22;;;1.30;;
71236;SDS011;58984;51.960;5.582;2024-03-02T06:35:33;1.45;;;0.77;;
71236;SDS011;58984;51.960;5.582;2024-03-02T06:38:00;1.10;;;0.85;;
71236;SDS011;58984;51.960;5.582;2024-03-02T06:40:26;3.00;;;1.08;;
71236;SDS011;58984;51.960;5.582;2024-03-02T06:42:52;1.70;;;0.90;;
71236;SDS011;58984;51.960;5.582;2024-03-02T06:45:17;1.33;;;0.90;;
71236;SDS011;58984;51.960;5.582;2024-03-02T06:47:43;2.13;;;1.33;;
71236;SDS011;58984;51.960;5.582;2024-03-02T06:50:11;2.08;;;1.00;;
71236;SDS011;58984;51.960;5.582;2024-03-02T06:52:37;2.70;;;1.30;;
71236;SDS011;58984;51.960;5.582;2024-03-02T06:55:03;2.95;;;1.25;;
71236;SDS011;58984;51.960;5.582;2024-03-02T06:57:30;1.63;;;0.95;;
71236;SDS011;58984;51.960;5.582;2024-03-02T06:59:55;1.98;;;1.05;;
71236;SDS011;58984;51.960;5.582;2024-03-02T07:02:23;1.45;;;1.08;;
71236;SDS011;58984;51.960;5.582;2024-03-02T07:04:51;2.28;;;1.10;;
71236;SDS011;58984;51.960;5.582;2024-03-02T07:07:18;3.08;;;1.23;;
71236;SDS011;58984;51.960;5.582;2024-03-02T07:09:43;1.85;;;0.90;;
71236;SDS011;58984;51.960;5.582;2024-03-02T07:12:09;1.75;;;0.98;;
71236;SDS011;58984;51.960;5.582;2024-03-02T07:14:35;1.00;;;0.90;;
71236;SDS011;58984;51.960;5.582;2024-03-02T07:17:22;3.17;;;1.08;;
71236;SDS011;58984;51.960;5.582;2024-03-02T07:19:47;1.50;;;1.00;;
71236;SDS011;58984;51.960;5.582;2024-03-02T07:22:13;3.10;;;0.95;;
71236;SDS011;58984;51.960;5.582;2024-03-02T07:24:42;2.78;;;1.10;;
71236;SDS011;58984;51.960;5.582;2024-03-02T07:27:11;2.35;;;1.20;;
71236;SDS011;58984;51.960;5.582;2024-03-02T07:29:38;3.33;;;1.10;;
71236;SDS011;58984;51.960;5.582;2024-03-02T07:32:05;3.85;;;1.20;;
71236;SDS011;58984;51.960;5.582;2024-03-02T07:34:31;1.58;;;1.00;;
71236;SDS011;58984;51.960;5.582;2024-03-02T07:36:57;3.05;;;1.15;;
71236;SDS011;58984;51.960;5.582;2024-03-02T07:39:23;1.77;;;1.00;;
71236;SDS011;58984;51.960;5.582;2024-03-02T07:41:49;1.92;;;1.20;;
71236;SDS011;58984;51.960;5.582;2024-03-02T07:44:15;6.57;;;1.40;;
71236;SDS011;58984;51.960;5.582;2024-03-02T07:46:41;2.35;;;1.13;;
71236;SDS011;58984;51.960;5.582;2024-03-02T07:49:16;7.10;;;1.77;;
71236;SDS011;58984;51.960;5.582;2024-03-02T07:51:43;1.90;;;1.30;;
71236;SDS011;58984;51.960;5.582;2024-03-02T07:54:09;2.45;;;1.33;;
71236;SDS011;58984;51.960;5.582;2024-03-02T07:56:35;2.03;;;0.93;;
71236;SDS011;58984;51.960;5.582;2024-03-02T07:59:01;2.03;;;1.35;;
71236;SDS011;58984;51.960;5.582;2024-03-02T08:01:27;5.53;;;1.10;;
71236;SDS011;58984;51.960;5.582;2024-03-02T08:03:55;3.28;;;1.33;;
71236;SDS011;58984;51.960;5.582;2024-03-02T08:06:25;1.30;;;1.10;;
71236;SDS011;58984;51.960;5.582;2024-03-02T08:08:55;1.20;;;1.10;;
71236;SDS011;58984;51.960;5.582;2024-03-02T08:11:21;3.03;;;1.48;;
71236;SDS011;58984;51.960;5.582;2024-03-02T08:13:47;3.58;;;1.13;;
71236;SDS011;58984;51.960;5.582;2024-03-02T08:16:17;2.08;;;1.33;;
71236;SDS011;58984;51.960;5.582;2024-03-02T08:18:46;3.72;;;1.40;;
71236;SDS011;58984;51.960;5.582;2024-03-02T08:21:12;3.90;;;1.55;;
71236;SDS011;58984;51.960;5.582;2024-03-02T08:23:38;1.80;;;1.13;;
71236;SDS011;58984;51.960;5.582;2024-03-02T08:26:05;3.45;;;1.73;;
71236;SDS011;58984;51.960;5.582;2024-03-02T08:28:31;2.67;;;1.35;;
71236;SDS011;58984;51.960;5.582;2024-03-02T08:30:58;4.80;;;1.60;;
71236;SDS011;58984;51.960;5.582;2024-03-02T08:33:23;3.55;;;1.77;;
71236;SDS011;58984;51.960;5.582;2024-03-02T08:35:49;1.85;;;1.40;;
71236;SDS011;58984;51.960;5.582;2024-03-02T08:38:15;2.13;;;1.42;;
71236;SDS011;58984;51.960;5.582;2024-03-02T08:40:40;2.50;;;1.13;;
71236;SDS011;58984;51.960;5.582;2024-03-02T08:43:06;4.15;;;1.33;;
71236;SDS011;58984;51.960;5.582;2024-03-02T08:45:32;2.38;;;1.33;;
71236;SDS011;58984;51.960;5.582;2024-03-02T08:47:59;1.58;;;1.48;;
71236;SDS011;58984;51.960;5.582;2024-03-02T08:50:25;6.20;;;1.77;;
71236;SDS011;58984;51.960;5.582;2024-03-02T08:52:51;6.45;;;1.70;;
71236;SDS011;58984;51.960;5.582;2024-03-02T08:55:16;3.50;;;1.30;;
71236;SDS011;58984;51.960;5.582;2024-03-02T08:57:42;3.10;;;1.30;;
71236;SDS011;58984;51.960;5.582;2024-03-02T09:00:08;3.03;;;1.50;;
71236;SDS011;58984;51.960;5.582;2024-03-02T09:02:34;3.30;;;1.48;;
71236;SDS011;58984;51.960;5.582;2024-03-02T09:05:00;2.55;;;1.33;;
71236;SDS011;58984;51.960;5.582;2024-03-02T09:07:26;4.05;;;1.85;;
71236;SDS011;58984;51.960;5.582;2024-03-02T09:09:52;6.32;;;1.58;;
71236;SDS011;58984;51.960;5.582;2024-03-02T09:12:18;3.65;;;1.30;;
71236;SDS011;58984;51.960;5.582;2024-03-02T09:14:44;3.63;;;1.45;;
71236;SDS011;58984;51.960;5.582;2024-03-02T09:17:10;2.72;;;1.75;;
71236;SDS011;58984;51.960;5.582;2024-03-02T09:19:36;2.08;;;1.40;;
71236;SDS011;58984;51.960;5.582;2024-03-02T09:22:03;2.90;;;1.50;;
71236;SDS011;58984;51.960;5.582;2024-03-02T09:24:30;3.30;;;1.73;;
71236;SDS011;58984;51.960;5.582;2024-03-02T09:26:59;4.35;;;1.55;;
71236;SDS011;58984;51.960;5.582;2024-03-02T09:29:24;3.85;;;1.80;;
71236;SDS011;58984;51.960;5.582;2024-03-02T09:31:50;2.85;;;1.77;;
71236;SDS011;58984;51.960;5.582;2024-03-02T09:34:16;6.05;;;1.88;;
71236;SDS011;58984;51.960;5.582;2024-03-02T09:36:42;3.03;;;1.55;;
71236;SDS011;58984;51.960;5.582;2024-03-02T09:39:08;2.22;;;1.48;;
71236;SDS011;58984;51.960;5.582;2024-03-02T09:41:37;3.58;;;1.58;;
71236;SDS011;58984;51.960;5.582;2024-03-02T09:44:04;4.60;;;1.70;;
71236;SDS011;58984;51.960;5.582;2024-03-02T09:46:30;3.83;;;2.00;;
71236;SDS011;58984;51.960;5.582;2024-03-02T09:48:56;3.55;;;1.60;;
71236;SDS011;58984;51.960;5.582;2024-03-02T09:51:22;2.95;;;1.50;;
71236;SDS011;58984;51.960;5.582;2024-03-02T09:53:48;3.92;;;1.73;;
71236;SDS011;58984;51.960;5.582;2024-03-02T09:56:14;2.28;;;1.30;;
71236;SDS011;58984;51.960;5.582;2024-03-02T09:58:46;2.72;;;1.50;;
71236;SDS011;58984;51.960;5.582;2024-03-02T10:01:12;2.75;;;1.63;;
71236;SDS011;58984;51.960;5.582;2024-03-02T10:03:37;2.67;;;1.38;;
71236;SDS011;58984;51.960;5.582;2024-03-02T10:08:49;1.33;;;1.20;;
71236;SDS011;58984;51.960;5.582;2024-03-02T10:11:31;2.35;;;1.35;;
71236;SDS011;58984;51.960;5.582;2024-03-02T10:14:08;2.70;;;1.35;;
71236;SDS011;58984;51.960;5.582;2024-03-02T10:16:35;2.50;;;1.30;;
71236;SDS011;58984;51.960;5.582;2024-03-02T10:19:23;2.42;;;1.50;;
71236;SDS011;58984;51.960;5.582;2024-03-02T10:21:53;1.40;;;1.17;;
71236;SDS011;58984;51.960;5.582;2024-03-02T10:24:20;2.92;;;1.58;;
71236;SDS011;58984;51.960;5.582;2024-03-02T10:26:46;6.90;;;2.05;;
71236;SDS011;58984;51.960;5.582;2024-03-02T10:29:12;3.50;;;1.40;;
71236;SDS011;58984;51.960;5.582;2024-03-02T10:31:38;2.67;;;1.60;;
71236;SDS011;58984;51.960;5.582;2024-03-02T10:34:09;5.40;;;2.03;;
71236;SDS011;58984;51.960;5.582;2024-03-02T10:36:36;3.35;;;1.38;;
71236;SDS011;58984;51.960;5.582;2024-03-02T10:39:03;4.70;;;1.60;;
71236;SDS011;58984;51.960;5.582;2024-03-02T10:41:36;2.22;;;1.70;;
71236;SDS011;58984;51.960;5.582;2024-03-02T10:44:06;3.80;;;1.63;;
71236;SDS011;58984;51.960;5.582;2024-03-02T10:46:34;3.13;;;1.52;;
71236;SDS011;58984;51.960;5.582;2024-03-02T10:49:01;2.60;;;1.50;;
71236;SDS011;58984;51.960;5.582;2024-03-02T10:51:29;2.40;;;1.50;;
71236;SDS011;58984;51.960;5.582;2024-03-02T10:56:28;3.75;;;1.77;;
71236;SDS011;58984;51.960;5.582;2024-03-02T10:59:17;4.95;;;1.60;;
71236;SDS011;58984;51.960;5.582;2024-03-02T11:01:50;3.60;;;1.40;;
71236;SDS011;58984;51.960;5.582;2024-03-02T11:04:18;4.63;;;1.67;;
71236;SDS011;58984;51.960;5.582;2024-03-02T11:06:50;5.97;;;1.60;;
71236;SDS011;58984;51.960;5.582;2024-03-02T11:09:23;5.40;;;1.45;;
71236;SDS011;58984;51.960;5.582;2024-03-02T11:11:56;4.45;;;1.50;;
71236;SDS011;58984;51.960;5.582;2024-03-02T11:14:43;2.25;;;1.23;;
71236;SDS011;58984;51.960;5.582;2024-03-02T11:17:09;2.17;;;1.30;;
71236;SDS011;58984;51.960;5.582;2024-03-02T11:19:42;4.57;;;1.67;;
71236;SDS011;58984;51.960;5.582;2024-03-02T11:22:10;3.25;;;1.13;;
71236;SDS011;58984;51.960;5.582;2024-03-02T11:24:36;1.67;;;1.23;;
71236;SDS011;58984;51.960;5.582;2024-03-02T11:27:02;3.95;;;1.45;;
71236;SDS011;58984;51.960;5.582;2024-03-02T11:32:13;2.50;;;1.23;;
71236;SDS011;58984;51.960;5.582;2024-03-02T11:34:44;2.85;;;1.60;;
71236;SDS011;58984;51.960;5.582;2024-03-02T11:37:12;2.60;;;1.30;;
71236;SDS011;58984;51.960;5.582;2024-03-02T11:39:39;2.33;;;1.52;;
71236;SDS011;58984;51.960;5.582;2024-03-02T11:42:06;3.85;;;1.42;;
71236;SDS011;58984;51.960;5.582;2024-03-02T11:44:34;4.05;;;1.50;;
71236;SDS011;58984;51.960;5.582;2024-03-02T11:47:00;2.13;;;1.35;;
71236;SDS011;58984;51.960;5.582;2024-03-02T11:52:10;3.00;;;1.35;;
71236;SDS011;58984;51.960;5.582;2024-03-02T11:54:37;3.65;;;1.63;;
71236;SDS011;58984;51.960;5.582;2024-03-02T11:57:11;1.60;;;1.20;;
71236;SDS011;58984;51.960;5.582;2024-03-02T11:59:39;3.03;;;1.65;;
71236;SDS011;58984;51.960;5.582;2024-03-02T12:02:05;5.47;;;1.50;;
71236;SDS011;58984;51.960;5.582;2024-03-02T12:04:31;5.30;;;1.30;;
71236;SDS011;58984;51.960;5.582;2024-03-02T12:06:58;7.18;;;2.13;;
71236;SDS011;58984;51.960;5.582;2024-03-02T12:09:25;2.05;;;1.48;;
71236;SDS011;58984;51.960;5.582;2024-03-02T12:12:04;2.05;;;1.42;;
71236;SDS011;58984;51.960;5.582;2024-03-02T12:17:04;2.83;;;1.30;;
71236;SDS011;58984;51.960;5.582;2024-03-02T12:19:30;3.38;;;1.50;;
71236;SDS011;58984;51.960;5.582;2024-03-02T12:21:58;2.13;;;1.35;;
71236;SDS011;58984;51.960;5.582;2024-03-02T12:24:26;3.05;;;1.75;;
71236;SDS011;58984;51.960;5.582;2024-03-02T12:26:53;3.53;;;1.33;;
71236;SDS011;58984;51.960;5.582;2024-03-02T12:29:19;2.85;;;1.70;;
71236;SDS011;58984;51.960;5.582;2024-03-02T12:31:47;4.15;;;1.65;;
71236;SDS011;58984;51.960;5.582;2024-03-02T12:34:14;4.55;;;1.60;;
71236;SDS011;58984;51.960;5.582;2024-03-02T12:36:41;4.13;;;1.75;;
71236;SDS011;58984;51.960;5.582;2024-03-02T12:39:10;4.47;;;2.08;;
71236;SDS011;58984;51.960;5.582;2024-03-02T12:41:36;3.88;;;1.65;;
71236;SDS011;58984;51.960;5.582;2024-03-02T12:44:03;4.90;;;1.73;;
71236;SDS011;58984;51.960;5.582;2024-03-02T12:46:29;5.10;;;1.80;;
71236;SDS011;58984;51.960;5.582;2024-03-02T12:48:56;2.92;;;2.00;;
71236;SDS011;58984;51.960;5.582;2024-03-02T12:51:21;3.42;;;1.55;;
71236;SDS011;58984;51.960;5.582;2024-03-02T12:53:57;2.50;;;1.50;;
71236;SDS011;58984;51.960;5.582;2024-03-02T12:56:23;4.88;;;1.80;;
71236;SDS011;58984;51.960;5.582;2024-03-02T12:58:59;3.72;;;1.90;;
71236;SDS011;58984;51.960;5.582;2024-03-02T13:01:25;2.65;;;1.73;;
71236;SDS011;58984;51.960;5.582;2024-03-02T13:03:51;2.80;;;1.75;;
71236;SDS011;58984;51.960;5.582;2024-03-02T13:06:18;2.25;;;1.60;;
71236;SDS011;58984;51.960;5.582;2024-03-02T13:08:45;5.22;;;1.60;;
71236;SDS011;58984;51.960;5.582;2024-03-02T13:11:11;2.50;;;1.50;;
71236;SDS011;58984;51.960;5.582;2024-03-02T13:13:38;4.15;;;1.50;;
71236;SDS011;58984;51.960;5.582;2024-03-02T13:16:10;4.93;;;1.70;;
71236;SDS011;58984;51.960;5.582;2024-03-02T13:18:38;4.35;;;1.90;;
71236;SDS011;58984;51.960;5.582;2024-03-02T13:21:05;3.72;;;1.98;;
71236;SDS011;58984;51.960;5.582;2024-03-02T13:23:31;4.03;;;1.85;;
71236;SDS011;58984;51.960;5.582;2024-03-02T13:25:57;3.40;;;2.03;;
71236;SDS011;58984;51.960;5.582;2024-03-02T13:28:23;3.67;;;1.65;;
71236;SDS011;58984;51.960;5.582;2024-03-02T13:30:50;5.45;;;1.90;;
71236;SDS011;58984;51.960;5.582;2024-03-02T13:33:15;5.57;;;1.83;;
71236;SDS011;58984;51.960;5.582;2024-03-02T13:35:44;4.03;;;1.77;;
71236;SDS011;58984;51.960;5.582;2024-03-02T13:38:10;3.55;;;1.88;;
71236;SDS011;58984;51.960;5.582;2024-03-02T13:40:35;6.28;;;2.05;;
71236;SDS011;58984;51.960;5.582;2024-03-02T13:43:02;3.17;;;1.83;;
71236;SDS011;58984;51.960;5.582;2024-03-02T13:45:28;5.70;;;2.15;;
71236;SDS011;58984;51.960;5.582;2024-03-02T13:47:53;6.80;;;2.42;;
71236;SDS011;58984;51.960;5.582;2024-03-02T13:50:19;8.20;;;2.33;;
71236;SDS011;58984;51.960;5.582;2024-03-02T13:52:45;3.35;;;1.98;;
71236;SDS011;58984;51.960;5.582;2024-03-02T13:55:11;5.03;;;2.17;;
71236;SDS011;58984;51.960;5.582;2024-03-02T13:57:36;2.80;;;1.73;;
71236;SDS011;58984;51.960;5.582;2024-03-02T14:00:02;6.95;;;2.22;;
71236;SDS011;58984;51.960;5.582;2024-03-02T14:02:35;4.90;;;2.00;;
71236;SDS011;58984;51.960;5.582;2024-03-02T14:05:01;6.22;;;1.73;;
71236;SDS011;58984;51.960;5.582;2024-03-02T14:07:26;6.65;;;1.92;;
71236;SDS011;58984;51.960;5.582;2024-03-02T14:09:52;3.38;;;1.77;;
71236;SDS011;58984;51.960;5.582;2024-03-02T14:12:18;3.55;;;1.55;;
71236;SDS011;58984;51.960;5.582;2024-03-02T14:14:43;3.55;;;1.65;;
71236;SDS011;58984;51.960;5.582;2024-03-02T14:17:09;3.60;;;1.45;;
71236;SDS011;58984;51.960;5.582;2024-03-02T14:19:39;4.38;;;1.58;;
71236;SDS011;58984;51.960;5.582;2024-03-02T14:22:05;2.08;;;1.70;;
71236;SDS011;58984;51.960;5.582;2024-03-02T14:24:31;2.13;;;1.30;;
71236;SDS011;58984;51.960;5.582;2024-03-02T14:26:56;3.08;;;1.73;;
71236;SDS011;58984;51.960;5.582;2024-03-02T14:31:52;2.13;;;1.40;;
71236;SDS011;58984;51.960;5.582;2024-03-02T14:34:17;2.72;;;1.60;;
71236;SDS011;58984;51.960;5.582;2024-03-02T14:36:43;2.97;;;1.80;;
71236;SDS011;58984;51.960;5.582;2024-03-02T14:39:09;1.70;;;1.40;;
71236;SDS011;58984;51.960;5.582;2024-03-02T14:41:36;3.00;;;1.48;;
71236;SDS011;58984;51.960;5.582;2024-03-02T14:44:02;1.70;;;1.48;;
71236;SDS011;58984;51.960;5.582;2024-03-02T14:46:28;1.60;;;1.23;;
71236;SDS011;58984;51.960;5.582;2024-03-02T14:49:02;4.35;;;1.50;;
71236;SDS011;58984;51.960;5.582;2024-03-02T14:51:29;1.58;;;1.15;;
71236;SDS011;58984;51.960;5.582;2024-03-02T14:53:55;6.15;;;1.50;;
71236;SDS011;58984;51.960;5.582;2024-03-02T14:56:21;1.92;;;1.60;;
71236;SDS011;58984;51.960;5.582;2024-03-02T14:58:46;4.28;;;1.58;;
71236;SDS011;58984;51.960;5.582;2024-03-02T15:01:12;2.35;;;1.50;;
71236;SDS011;58984;51.960;5.582;2024-03-02T15:03:39;2.75;;;1.30;;
71236;SDS011;58984;51.960;5.582;2024-03-02T15:06:05;3.17;;;1.58;;